sensor_id;sensor_type;location;lat;lon;timestamp;P1;durP1;ratioP1;P2;durP2;ratioP2
58244;SDS011;44550;43.864;25.986;2024-02-16T00:02:04;11.93;;;8.20;;
58244;SDS011;44550;43.864;25.986;2024-02-16T00:06:13;10.32;;;5.20;;
58244;SDS011;44550;43.864;25.986;2024-02-16T00:10:17;9.52;;;4.38;;
58244;SDS011;44550;43.864;25.986;2024-02-16T00:14:19;6.50;;;4.75;;
58244;SDS011;44550;43.864;25.986;2024-02-16T00:18:30;7.45;;;4.53;;
58244;SDS011;44550;43.864;25.986;2024-02-16T00:22:34;6.15;;;4.80;;
58244;SDS011;44550;43.864;25.986;2024-02-16T00:26:37;6.13;;;4.75;;
58244;SDS011;44550;43.864;25.986;2024-02-16T00:30:40;10.90;;;4.60;;
58244;SDS011;44550;43.864;25.986;2024-02-16T00:34:44;9.02;;;4.32;;
58244;SDS011;44550;43.864;25.986;2024-02-16T00:38:45;10.38;;;5.63;;
58244;SDS011;44550;43.864;25.986;2024-02-16T00:42:46;7.22;;;5.03;;
58244;SDS011;44550;43.864;25.986;2024-02-16T00:46:47;7.85;;;5.78;;
58244;SDS011;44550;43.864;25.986;2024-02-16T00:50:50;11.57;;;8.20;;
58244;SDS011;44550;43.864;25.986;2024-02-16T00:54:51;9.48;;;5.30;;
58244;SDS011;44550;43.864;25.986;2024-02-16T00:58:51;6.00;;;4.20;;
58244;SDS011;44550;43.864;25.986;2024-02-16T01:02:52;7.55;;;4.63;;
58244;SDS011;44550;43.864;25.986;2024-02-16T01:06:54;8.80;;;5.78;;
58244;SDS011;44550;43.864;25.986;2024-02-16T01:10:55;7.35;;;5.15;;
58244;SDS011;44550;43.864;25.986;2024-02-16T01:14:55;6.97;;;5.78;;
58244;SDS011;44550;43.864;25.986;2024-02-16T01:18:57;8.40;;;5.38;;
58244;SDS011;44550;43.864;25.986;2024-02-16T01:23:00;7.60;;;4.85;;
58244;SDS011;44550;43.864;25.986;2024-02-16T01:27:02;10.48;;;5.57;;
58244;SDS011;44550;43.864;25.986;2024-02-16T01:31:02;9.10;;;5.30;;
58244;SDS011;44550;43.864;25.986;2024-02-16T01:35:05;14.15;;;7.25;;
58244;SDS011;44550;43.864;25.986;2024-02-16T01:39:08;14.10;;;6.45;;
58244;SDS011;44550;43.864;25.986;2024-02-16T01:43:09;19.63;;;6.30;;
58244;SDS011;44550;43.864;25.986;2024-02-16T01:47:12;11.80;;;5.35;;
58244;SDS011;44550;43.864;25.986;2024-02-16T01:51:13;9.10;;;5.20;;
58244;SDS011;44550;43.864;25.986;2024-02-16T01:55:26;14.02;;;5.20;;
58244;SDS011;44550;43.864;25.986;2024-02-16T01:59:27;9.30;;;5.13;;
58244;SDS011;44550;43.864;25.986;2024-02-16T02:03:32;10.23;;;6.05;;
58244;SDS011;44550;43.864;25.986;2024-02-16T02:07:33;9.68;;;4.80;;
58244;SDS011;44550;43.864;25.986;2024-02-16T02:11:37;6.60;;;5.55;;
58244;SDS011;44550;43.864;25.986;2024-02-16T02:15:39;7.05;;;5.07;;
58244;SDS011;44550;43.864;25.986;2024-02-16T02:19:39;9.65;;;5.30;;
58244;SDS011;44550;43.864;25.986;2024-02-16T02:23:44;7.60;;;5.03;;
58244;SDS011;44550;43.864;25.986;2024-02-16T02:27:52;7.90;;;4.93;;
58244;SDS011;44550;43.864;25.986;2024-02-16T02:31:57;7.72;;;5.43;;
58244;SDS011;44550;43.864;25.986;2024-02-16T02:35:59;7.20;;;5.18;;
58244;SDS011;44550;43.864;25.986;2024-02-16T02:40:05;7.28;;;5.15;;
58244;SDS011;44550;43.864;25.986;2024-02-16T02:44:08;9.80;;;6.63;;
58244;SDS011;44550;43.864;25.986;2024-02-16T02:48:12;7.93;;;5.35;;
58244;SDS011;44550;43.864;25.986;2024-02-16T02:52:13;8.50;;;5.40;;
58244;SDS011;44550;43.864;25.986;2024-02-16T02:56:17;7.80;;;6.25;;
58244;SDS011;44550;43.864;25.986;2024-02-16T03:00:18;10.45;;;5.50;;
58244;SDS011;44550;43.864;25.986;2024-02-16T03:04:22;11.68;;;5.32;;
58244;SDS011;44550;43.864;25.986;2024-02-16T03:08:25;8.55;;;6.15;;
58244;SDS011;44550;43.864;25.986;2024-02-16T03:12:27;12.23;;;5.40;;
58244;SDS011;44550;43.864;25.986;2024-02-16T03:16:31;9.48;;;5.47;;
58244;SDS011;44550;43.864;25.986;2024-02-16T03:20:32;11.95;;;5.80;;
58244;SDS011;44550;43.864;25.986;2024-02-16T03:24:39;10.52;;;7.57;;
58244;SDS011;44550;43.864;25.986;2024-02-16T03:28:47;9.55;;;5.82;;
58244;SDS011;44550;43.864;25.986;2024-02-16T03:32:50;9.20;;;6.28;;
58244;SDS011;44550;43.864;25.986;2024-02-16T03:36:53;13.90;;;6.70;;
58244;SDS011;44550;43.864;25.986;2024-02-16T03:40:59;30.55;;;18.55;;
58244;SDS011;44550;43.864;25.986;2024-02-16T03:45:07;27.92;;;18.35;;
58244;SDS011;44550;43.864;25.986;2024-02-16T03:49:11;21.02;;;12.77;;
58244;SDS011;44550;43.864;25.986;2024-02-16T03:53:17;18.67;;;9.52;;
58244;SDS011;44550;43.864;25.986;2024-02-16T03:57:20;9.65;;;7.63;;
58244;SDS011;44550;43.864;25.986;2024-02-16T04:01:31;26.88;;;15.40;;
58244;SDS011;44550;43.864;25.986;2024-02-16T04:05:33;55.35;;;27.63;;
58244;SDS011;44550;43.864;25.986;2024-02-16T04:09:36;49.97;;;29.83;;
58244;SDS011;44550;43.864;25.986;2024-02-16T04:13:38;31.30;;;16.65;;
58244;SDS011;44550;43.864;25.986;2024-02-16T04:17:50;21.60;;;12.88;;
58244;SDS011;44550;43.864;25.986;2024-02-16T04:21:51;13.57;;;8.68;;
58244;SDS011;44550;43.864;25.986;2024-02-16T04:25:56;11.00;;;7.13;;
58244;SDS011;44550;43.864;25.986;2024-02-16T04:30:01;11.40;;;7.03;;
58244;SDS011;44550;43.864;25.986;2024-02-16T04:34:04;15.65;;;8.30;;
58244;SDS011;44550;43.864;25.986;2024-02-16T04:38:06;10.02;;;6.68;;
58244;SDS011;44550;43.864;25.986;2024-02-16T04:42:06;10.90;;;7.95;;
58244;SDS011;44550;43.864;25.986;2024-02-16T04:46:07;12.95;;;7.15;;
58244;SDS011;44550;43.864;25.986;2024-02-16T04:50:09;11.15;;;6.82;;
58244;SDS011;44550;43.864;25.986;2024-02-16T04:54:14;16.00;;;8.60;;
58244;SDS011;44550;43.864;25.986;2024-02-16T04:58:15;10.85;;;7.63;;
58244;SDS011;44550;43.864;25.986;2024-02-16T05:02:15;13.65;;;8.07;;
58244;SDS011;44550;43.864;25.986;2024-02-16T05:06:18;12.20;;;7.22;;
58244;SDS011;44550;43.864;25.986;2024-02-16T05:10:20;24.17;;;8.20;;
58244;SDS011;44550;43.864;25.986;2024-02-16T05:14:21;12.23;;;8.65;;
58244;SDS011;44550;43.864;25.986;2024-02-16T05:18:22;11.88;;;7.32;;
58244;SDS011;44550;43.864;25.986;2024-02-16T05:22:25;14.30;;;7.93;;
58244;SDS011;44550;43.864;25.986;2024-02-16T05:26:26;17.88;;;10.90;;
58244;SDS011;44550;43.864;25.986;2024-02-16T05:30:29;14.35;;;10.65;;
58244;SDS011;44550;43.864;25.986;2024-02-16T05:34:30;15.18;;;8.32;;
58244;SDS011;44550;43.864;25.986;2024-02-16T05:38:40;14.10;;;11.30;;
58244;SDS011;44550;43.864;25.986;2024-02-16T05:42:43;15.15;;;10.27;;
58244;SDS011;44550;43.864;25.986;2024-02-16T05:46:55;17.27;;;8.95;;
58244;SDS011;44550;43.864;25.986;2024-02-16T05:51:02;11.43;;;7.97;;
58244;SDS011;44550;43.864;25.986;2024-02-16T05:55:10;21.77;;;9.48;;
58244;SDS011;44550;43.864;25.986;2024-02-16T05:59:15;12.38;;;7.60;;
58244;SDS011;44550;43.864;25.986;2024-02-16T06:03:24;21.27;;;14.65;;
58244;SDS011;44550;43.864;25.986;2024-02-16T06:07:28;15.07;;;8.93;;
58244;SDS011;44550;43.864;25.986;2024-02-16T06:11:32;10.40;;;7.30;;
58244;SDS011;44550;43.864;25.986;2024-02-16T06:15:36;11.35;;;8.00;;
58244;SDS011;44550;43.864;25.986;2024-02-16T06:19:37;16.27;;;7.65;;
58244;SDS011;44550;43.864;25.986;2024-02-16T06:23:38;17.90;;;8.85;;
58244;SDS011;44550;43.864;25.986;2024-02-16T06:27:40;14.15;;;11.05;;
58244;SDS011;44550;43.864;25.986;2024-02-16T06:31:41;18.75;;;10.98;;
58244;SDS011;44550;43.864;25.986;2024-02-16T06:35:41;15.30;;;10.52;;
58244;SDS011;44550;43.864;25.986;2024-02-16T06:39:44;27.55;;;14.25;;
58244;SDS011;44550;43.864;25.986;2024-02-16T06:43:51;25.85;;;11.68;;
58244;SDS011;44550;43.864;25.986;2024-02-16T06:47:54;21.60;;;10.20;;
58244;SDS011;44550;43.864;25.986;2024-02-16T06:51:55;15.70;;;8.50;;
58244;SDS011;44550;43.864;25.986;2024-02-16T06:55:55;15.85;;;10.73;;
58244;SDS011;44550;43.864;25.986;2024-02-16T06:59:58;12.80;;;9.02;;
58244;SDS011;44550;43.864;25.986;2024-02-16T07:04:00;14.35;;;11.98;;
58244;SDS011;44550;43.864;25.986;2024-02-16T07:08:01;14.55;;;9.25;;
58244;SDS011;44550;43.864;25.986;2024-02-16T07:12:03;14.00;;;8.52;;
58244;SDS011;44550;43.864;25.986;2024-02-16T07:16:07;11.70;;;7.57;;
58244;SDS011;44550;43.864;25.986;2024-02-16T07:20:09;11.65;;;7.35;;
58244;SDS011;44550;43.864;25.986;2024-02-16T07:24:13;19.48;;;8.50;;
58244;SDS011;44550;43.864;25.986;2024-02-16T07:28:16;16.15;;;9.40;;
58244;SDS011;44550;43.864;25.986;2024-02-16T07:32:23;14.90;;;9.05;;
58244;SDS011;44550;43.864;25.986;2024-02-16T07:36:24;12.93;;;8.73;;
58244;SDS011;44550;43.864;25.986;2024-02-16T07:40:25;17.48;;;8.68;;
58244;SDS011;44550;43.864;25.986;2024-02-16T07:44:44;14.77;;;8.27;;
58244;SDS011;44550;43.864;25.986;2024-02-16T07:48:52;10.10;;;7.63;;
58244;SDS011;44550;43.864;25.986;2024-02-16T07:52:53;10.77;;;8.15;;
58244;SDS011;44550;43.864;25.986;2024-02-16T07:56:54;11.20;;;8.07;;
58244;SDS011;44550;43.864;25.986;2024-02-16T08:00:58;16.23;;;12.82;;
58244;SDS011;44550;43.864;25.986;2024-02-16T08:05:04;15.20;;;8.75;;
58244;SDS011;44550;43.864;25.986;2024-02-16T08:09:05;13.13;;;8.32;;
58244;SDS011;44550;43.864;25.986;2024-02-16T08:13:06;10.27;;;7.03;;
58244;SDS011;44550;43.864;25.986;2024-02-16T08:17:07;13.93;;;8.95;;
58244;SDS011;44550;43.864;25.986;2024-02-16T08:21:18;13.63;;;8.67;;
58244;SDS011;44550;43.864;25.986;2024-02-16T08:25:19;11.85;;;8.13;;
58244;SDS011;44550;43.864;25.986;2024-02-16T08:29:20;13.65;;;8.73;;
58244;SDS011;44550;43.864;25.986;2024-02-16T08:33:26;12.77;;;8.15;;
58244;SDS011;44550;43.864;25.986;2024-02-16T08:37:31;13.77;;;8.43;;
58244;SDS011;44550;43.864;25.986;2024-02-16T08:41:32;13.82;;;7.93;;
58244;SDS011;44550;43.864;25.986;2024-02-16T08:45:33;12.50;;;8.45;;
58244;SDS011;44550;43.864;25.986;2024-02-16T08:49:39;16.15;;;9.43;;
58244;SDS011;44550;43.864;25.986;2024-02-16T08:53:42;12.25;;;9.65;;
58244;SDS011;44550;43.864;25.986;2024-02-16T08:57:45;18.02;;;10.10;;
58244;SDS011;44550;43.864;25.986;2024-02-16T09:01:45;11.55;;;7.57;;
58244;SDS011;44550;43.864;25.986;2024-02-16T09:05:48;12.05;;;7.47;;
58244;SDS011;44550;43.864;25.986;2024-02-16T09:09:51;16.98;;;8.90;;
58244;SDS011;44550;43.864;25.986;2024-02-16T09:13:54;10.57;;;8.60;;
58244;SDS011;44550;43.864;25.986;2024-02-16T09:17:54;19.45;;;7.90;;
58244;SDS011;44550;43.864;25.986;2024-02-16T09:22:08;13.13;;;8.68;;
58244;SDS011;44550;43.864;25.986;2024-02-16T09:26:11;12.40;;;7.20;;
58244;SDS011;44550;43.864;25.986;2024-02-16T09:30:11;14.88;;;8.18;;
58244;SDS011;44550;43.864;25.986;2024-02-16T09:34:12;12.38;;;7.60;;
58244;SDS011;44550;43.864;25.986;2024-02-16T09:38:13;24.10;;;8.07;;
58244;SDS011;44550;43.864;25.986;2024-02-16T09:42:16;14.20;;;9.68;;
58244;SDS011;44550;43.864;25.986;2024-02-16T09:46:16;11.93;;;7.85;;
58244;SDS011;44550;43.864;25.986;2024-02-16T09:50:21;8.02;;;5.85;;
58244;SDS011;44550;43.864;25.986;2024-02-16T09:54:24;10.55;;;7.43;;
58244;SDS011;44550;43.864;25.986;2024-02-16T09:58:26;12.77;;;7.60;;
58244;SDS011;44550;43.864;25.986;2024-02-16T10:02:38;11.60;;;8.68;;
58244;SDS011;44550;43.864;25.986;2024-02-16T10:06:45;13.25;;;9.35;;
58244;SDS011;44550;43.864;25.986;2024-02-16T10:10:47;10.13;;;7.22;;
58244;SDS011;44550;43.864;25.986;2024-02-16T10:14:55;11.10;;;7.88;;
58244;SDS011;44550;43.864;25.986;2024-02-16T10:19:04;15.75;;;12.35;;
58244;SDS011;44550;43.864;25.986;2024-02-16T10:23:05;12.73;;;11.43;;
58244;SDS011;44550;43.864;25.986;2024-02-16T10:27:13;8.63;;;6.72;;
58244;SDS011;44550;43.864;25.986;2024-02-16T10:31:21;10.95;;;7.40;;
58244;SDS011;44550;43.864;25.986;2024-02-16T10:35:29;13.38;;;9.02;;
58244;SDS011;44550;43.864;25.986;2024-02-16T10:39:33;12.38;;;9.60;;
58244;SDS011;44550;43.864;25.986;2024-02-16T10:43:39;11.85;;;8.15;;
58244;SDS011;44550;43.864;25.986;2024-02-16T10:52:04;10.02;;;8.15;;
58244;SDS011;44550;43.864;25.986;2024-02-16T10:56:09;9.48;;;7.70;;
58244;SDS011;44550;43.864;25.986;2024-02-16T11:00:16;8.30;;;7.05;;
58244;SDS011;44550;43.864;25.986;2024-02-16T11:04:18;9.52;;;7.07;;
58244;SDS011;44550;43.864;25.986;2024-02-16T11:08:20;15.50;;;8.60;;
58244;SDS011;44550;43.864;25.986;2024-02-16T11:12:26;13.90;;;10.70;;
58244;SDS011;44550;43.864;25.986;2024-02-16T11:16:43;13.47;;;9.43;;
58244;SDS011;44550;43.864;25.986;2024-02-16T11:20:53;11.50;;;7.80;;
58244;SDS011;44550;43.864;25.986;2024-02-16T11:24:58;20.75;;;13.18;;
58244;SDS011;44550;43.864;25.986;2024-02-16T11:29:00;12.02;;;7.97;;
58244;SDS011;44550;43.864;25.986;2024-02-16T11:33:01;12.43;;;9.65;;
58244;SDS011;44550;43.864;25.986;2024-02-16T11:37:05;15.15;;;7.90;;
58244;SDS011;44550;43.864;25.986;2024-02-16T11:41:06;14.38;;;9.93;;
58244;SDS011;44550;43.864;25.986;2024-02-16T11:45:09;15.25;;;9.90;;
58244;SDS011;44550;43.864;25.986;2024-02-16T11:49:20;15.25;;;9.38;;
58244;SDS011;44550;43.864;25.986;2024-02-16T11:53:23;12.25;;;9.45;;
58244;SDS011;44550;43.864;25.986;2024-02-16T11:57:23;31.58;;;14.95;;
58244;SDS011;44550;43.864;25.986;2024-02-16T12:01:31;39.70;;;16.73;;
58244;SDS011;44550;43.864;25.986;2024-02-16T12:05:49;14.93;;;9.68;;
58244;SDS011;44550;43.864;25.986;2024-02-16T12:09:56;14.18;;;9.07;;
58244;SDS011;44550;43.864;25.986;2024-02-16T12:13:57;20.67;;;10.52;;
58244;SDS011;44550;43.864;25.986;2024-02-16T12:18:00;21.63;;;12.15;;
58244;SDS011;44550;43.864;25.986;2024-02-16T12:22:05;12.90;;;8.88;;
58244;SDS011;44550;43.864;25.986;2024-02-16T12:26:20;11.32;;;7.65;;
58244;SDS011;44550;43.864;25.986;2024-02-16T12:30:20;13.48;;;9.90;;
58244;SDS011;44550;43.864;25.986;2024-02-16T12:34:23;24.88;;;12.90;;
58244;SDS011;44550;43.864;25.986;2024-02-16T12:38:24;15.98;;;9.23;;
58244;SDS011;44550;43.864;25.986;2024-02-16T12:42:28;15.18;;;9.93;;
58244;SDS011;44550;43.864;25.986;2024-02-16T12:46:30;13.00;;;8.88;;
58244;SDS011;44550;43.864;25.986;2024-02-16T12:50:41;21.50;;;11.65;;
58244;SDS011;44550;43.864;25.986;2024-02-16T12:54:48;12.98;;;7.97;;
58244;SDS011;44550;43.864;25.986;2024-02-16T12:58:56;16.38;;;10.02;;
58244;SDS011;44550;43.864;25.986;2024-02-16T13:03:02;12.32;;;8.10;;
58244;SDS011;44550;43.864;25.986;2024-02-16T13:07:05;9.88;;;8.18;;
58244;SDS011;44550;43.864;25.986;2024-02-16T13:11:16;16.20;;;9.35;;
58244;SDS011;44550;43.864;25.986;2024-02-16T13:15:20;10.93;;;9.30;;
58244;SDS011;44550;43.864;25.986;2024-02-16T13:19:25;13.02;;;8.63;;
58244;SDS011;44550;43.864;25.986;2024-02-16T13:23:28;15.38;;;8.68;;
58244;SDS011;44550;43.864;25.986;2024-02-16T13:27:32;13.25;;;9.02;;
58244;SDS011;44550;43.864;25.986;2024-02-16T13:31:34;17.92;;;10.13;;
58244;SDS011;44550;43.864;25.986;2024-02-16T13:35:37;13.70;;;9.73;;
58244;SDS011;44550;43.864;25.986;2024-02-16T13:39:42;14.25;;;9.57;;
58244;SDS011;44550;43.864;25.986;2024-02-16T13:43:42;16.52;;;9.02;;
58244;SDS011;44550;43.864;25.986;2024-02-16T13:47:45;11.32;;;8.85;;
58244;SDS011;44550;43.864;25.986;2024-02-16T13:51:46;25.20;;;16.35;;
58244;SDS011;44550;43.864;25.986;2024-02-16T13:55:49;15.80;;;11.18;;
58244;SDS011;44550;43.864;25.986;2024-02-16T13:59:50;13.43;;;8.98;;
58244;SDS011;44550;43.864;25.986;2024-02-16T14:03:52;24.85;;;12.23;;
58244;SDS011;44550;43.864;25.986;2024-02-16T14:07:55;19.40;;;11.23;;
58244;SDS011;44550;43.864;25.986;2024-02-16T14:12:01;16.02;;;10.10;;
58244;SDS011;44550;43.864;25.986;2024-02-16T14:16:05;12.73;;;9.30;;
58244;SDS011;44550;43.864;25.986;2024-02-16T14:20:10;23.67;;;11.80;;
58244;SDS011;44550;43.864;25.986;2024-02-16T14:24:12;21.10;;;10.93;;
58244;SDS011;44550;43.864;25.986;2024-02-16T14:28:14;17.13;;;10.50;;
58244;SDS011;44550;43.864;25.986;2024-02-16T14:32:15;21.35;;;13.02;;
58244;SDS011;44550;43.864;25.986;2024-02-16T14:36:19;12.63;;;10.63;;
58244;SDS011;44550;43.864;25.986;2024-02-16T14:40:24;15.82;;;11.48;;
58244;SDS011;44550;43.864;25.986;2024-02-16T14:44:25;15.38;;;9.85;;
58244;SDS011;44550;43.864;25.986;2024-02-16T14:48:25;16.55;;;11.40;;
58244;SDS011;44550;43.864;25.986;2024-02-16T14:52:30;18.92;;;11.27;;
58244;SDS011;44550;43.864;25.986;2024-02-16T14:56:32;15.55;;;11.25;;
58244;SDS011;44550;43.864;25.986;2024-02-16T15:00:33;16.27;;;11.95;;
58244;SDS011;44550;43.864;25.986;2024-02-16T15:04:37;16.10;;;11.57;;
58244;SDS011;44550;43.864;25.986;2024-02-16T15:08:42;21.67;;;12.75;;
58244;SDS011;44550;43.864;25.986;2024-02-16T15:12:53;15.68;;;10.05;;
58244;SDS011;44550;43.864;25.986;2024-02-16T15:17:16;18.27;;;10.95;;
58244;SDS011;44550;43.864;25.986;2024-02-16T15:21:19;23.70;;;12.43;;
58244;SDS011;44550;43.864;25.986;2024-02-16T15:25:22;20.52;;;13.32;;
58244;SDS011;44550;43.864;25.986;2024-02-16T15:29:23;18.65;;;12.18;;
58244;SDS011;44550;43.864;25.986;2024-02-16T15:33:24;18.20;;;13.60;;
58244;SDS011;44550;43.864;25.986;2024-02-16T15:37:25;20.23;;;14.05;;
58244;SDS011;44550;43.864;25.986;2024-02-16T15:41:30;18.65;;;12.35;;
58244;SDS011;44550;43.864;25.986;2024-02-16T15:45:31;19.17;;;12.43;;
58244;SDS011;44550;43.864;25.986;2024-02-16T15:49:42;17.33;;;12.93;;
58244;SDS011;44550;43.864;25.986;2024-02-16T15:53:45;18.00;;;12.75;;
58244;SDS011;44550;43.864;25.986;2024-02-16T15:57:50;20.20;;;13.75;;
58244;SDS011;44550;43.864;25.986;2024-02-16T16:01:53;19.30;;;12.77;;
58244;SDS011;44550;43.864;25.986;2024-02-16T16:05:58;23.00;;;13.82;;
58244;SDS011;44550;43.864;25.986;2024-02-16T16:10:06;19.45;;;13.30;;
58244;SDS011;44550;43.864;25.986;2024-02-16T16:14:13;30.73;;;13.57;;
58244;SDS011;44550;43.864;25.986;2024-02-16T16:18:14;25.15;;;14.15;;
58244;SDS011;44550;43.864;25.986;2024-02-16T16:22:19;21.15;;;13.20;;
58244;SDS011;44550;43.864;25.986;2024-02-16T16:26:22;22.98;;;16.67;;
58244;SDS011;44550;43.864;25.986;2024-02-16T16:30:26;23.98;;;15.60;;
58244;SDS011;44550;43.864;25.986;2024-02-16T16:34:27;23.33;;;14.65;;
58244;SDS011;44550;43.864;25.986;2024-02-16T16:38:28;26.52;;;16.38;;
58244;SDS011;44550;43.864;25.986;2024-02-16T16:42:32;24.80;;;14.90;;
58244;SDS011;44550;43.864;25.986;2024-02-16T16:46:35;31.13;;;15.55;;
58244;SDS011;44550;43.864;25.986;2024-02-16T16:50:36;38.90;;;22.65;;
58244;SDS011;44550;43.864;25.986;2024-02-16T16:54:37;27.70;;;16.15;;
58244;SDS011;44550;43.864;25.986;2024-02-16T16:58:43;29.48;;;17.02;;
58244;SDS011;44550;43.864;25.986;2024-02-16T17:02:46;29.42;;;18.63;;
58244;SDS011;44550;43.864;25.986;2024-02-16T17:06:51;23.92;;;16.80;;
58244;SDS011;44550;43.864;25.986;2024-02-16T17:10:57;25.40;;;18.70;;
58244;SDS011;44550;43.864;25.986;2024-02-16T17:15:01;26.50;;;16.42;;
58244;SDS011;44550;43.864;25.986;2024-02-16T17:19:06;28.15;;;18.35;;
58244;SDS011;44550;43.864;25.986;2024-02-16T17:23:07;24.02;;;13.48;;
58244;SDS011;44550;43.864;25.986;2024-02-16T17:27:08;31.95;;;17.15;;
58244;SDS011;44550;43.864;25.986;2024-02-16T17:31:10;29.75;;;17.30;;
58244;SDS011;44550;43.864;25.986;2024-02-16T17:35:14;24.92;;;16.48;;
58244;SDS011;44550;43.864;25.986;2024-02-16T17:39:17;32.60;;;18.95;;
58244;SDS011;44550;43.864;25.986;2024-02-16T17:43:20;26.77;;;17.55;;
58244;SDS011;44550;43.864;25.986;2024-02-16T17:47:20;44.50;;;32.80;;
58244;SDS011;44550;43.864;25.986;2024-02-16T17:51:23;67.30;;;45.30;;
58244;SDS011;44550;43.864;25.986;2024-02-16T17:55:23;50.45;;;38.47;;
58244;SDS011;44550;43.864;25.986;2024-02-16T17:59:24;55.60;;;37.08;;
58244;SDS011;44550;43.864;25.986;2024-02-16T18:03:27;44.97;;;29.23;;
58244;SDS011;44550;43.864;25.986;2024-02-16T18:07:30;37.35;;;19.40;;
58244;SDS011;44550;43.864;25.986;2024-02-16T18:11:31;41.38;;;26.50;;
58244;SDS011;44550;43.864;25.986;2024-02-16T18:15:31;33.20;;;22.10;;
58244;SDS011;44550;43.864;25.986;2024-02-16T18:19:36;43.70;;;31.58;;
58244;SDS011;44550;43.864;25.986;2024-02-16T18:23:40;42.78;;;25.90;;
58244;SDS011;44550;43.864;25.986;2024-02-16T18:27:45;39.28;;;18.17;;
58244;SDS011;44550;43.864;25.986;2024-02-16T18:31:46;27.83;;;16.75;;
58244;SDS011;44550;43.864;25.986;2024-02-16T18:35:47;28.80;;;15.30;;
58244;SDS011;44550;43.864;25.986;2024-02-16T18:39:49;23.50;;;13.00;;
58244;SDS011;44550;43.864;25.986;2024-02-16T18:43:52;30.90;;;17.63;;
58244;SDS011;44550;43.864;25.986;2024-02-16T18:47:52;30.88;;;19.55;;
58244;SDS011;44550;43.864;25.986;2024-02-16T18:51:53;27.77;;;16.67;;
58244;SDS011;44550;43.864;25.986;2024-02-16T18:55:56;28.33;;;16.48;;
58244;SDS011;44550;43.864;25.986;2024-02-16T18:59:57;31.48;;;14.75;;
58244;SDS011;44550;43.864;25.986;2024-02-16T19:04:00;32.10;;;18.80;;
58244;SDS011;44550;43.864;25.986;2024-02-16T19:08:01;29.15;;;17.35;;
58244;SDS011;44550;43.864;25.986;2024-02-16T19:12:05;30.95;;;18.55;;
58244;SDS011;44550;43.864;25.986;2024-02-16T19:16:07;26.90;;;16.02;;
58244;SDS011;44550;43.864;25.986;2024-02-16T19:20:13;28.67;;;15.57;;
58244;SDS011;44550;43.864;25.986;2024-02-16T19:24:15;25.40;;;15.50;;
58244;SDS011;44550;43.864;25.986;2024-02-16T19:28:31;23.48;;;14.75;;
58244;SDS011;44550;43.864;25.986;2024-02-16T19:32:34;23.13;;;15.05;;
58244;SDS011;44550;43.864;25.986;2024-02-16T19:36:34;23.52;;;15.05;;
58244;SDS011;44550;43.864;25.986;2024-02-16T19:40:43;20.90;;;14.52;;
58244;SDS011;44550;43.864;25.986;2024-02-16T19:44:47;27.77;;;17.27;;
58244;SDS011;44550;43.864;25.986;2024-02-16T19:48:52;26.63;;;17.45;;
58244;SDS011;44550;43.864;25.986;2024-02-16T19:52:53;26.00;;;16.25;;
58244;SDS011;44550;43.864;25.986;2024-02-16T19:56:53;27.17;;;16.88;;
58244;SDS011;44550;43.864;25.986;2024-02-16T20:00:56;24.67;;;16.80;;
58244;SDS011;44550;43.864;25.986;2024-02-16T20:05:03;27.17;;;14.48;;
58244;SDS011;44550;43.864;25.986;2024-02-16T20:09:05;28.55;;;16.35;;
58244;SDS011;44550;43.864;25.986;2024-02-16T20:13:08;31.95;;;16.70;;
58244;SDS011;44550;43.864;25.986;2024-02-16T20:17:12;26.10;;;15.88;;
58244;SDS011;44550;43.864;25.986;2024-02-16T20:21:14;26.75;;;18.15;;
58244;SDS011;44550;43.864;25.986;2024-02-16T20:25:15;25.77;;;17.70;;
58244;SDS011;44550;43.864;25.986;2024-02-16T20:29:19;23.20;;;17.33;;
58244;SDS011;44550;43.864;25.986;2024-02-16T20:33:26;24.83;;;16.52;;
58244;SDS011;44550;43.864;25.986;2024-02-16T20:37:26;29.67;;;18.13;;
58244;SDS011;44550;43.864;25.986;2024-02-16T20:41:27;28.20;;;17.65;;
58244;SDS011;44550;43.864;25.986;2024-02-16T20:45:27;27.45;;;17.73;;
58244;SDS011;44550;43.864;25.986;2024-02-16T20:49:29;35.65;;;19.38;;
58244;SDS011;44550;43.864;25.986;2024-02-16T20:53:29;26.02;;;15.77;;
58244;SDS011;44550;43.864;25.986;2024-02-16T20:57:29;28.80;;;18.67;;
58244;SDS011;44550;43.864;25.986;2024-02-16T21:01:30;28.15;;;15.63;;
58244;SDS011;44550;43.864;25.986;2024-02-16T21:05:33;27.08;;;16.55;;
58244;SDS011;44550;43.864;25.986;2024-02-16T21:09:34;27.75;;;16.55;;
58244;SDS011;44550;43.864;25.986;2024-02-16T21:13:37;28.40;;;18.08;;
58244;SDS011;44550;43.864;25.986;2024-02-16T21:17:46;24.90;;;17.25;;
58244;SDS011;44550;43.864;25.986;2024-02-16T21:21:48;33.13;;;20.52;;
58244;SDS011;44550;43.864;25.986;2024-02-16T21:25:50;29.88;;;17.23;;
58244;SDS011;44550;43.864;25.986;2024-02-16T21:29:50;27.23;;;16.20;;
58244;SDS011;44550;43.864;25.986;2024-02-16T21:33:54;28.30;;;17.45;;
58244;SDS011;44550;43.864;25.986;2024-02-16T21:37:56;25.08;;;16.27;;
58244;SDS011;44550;43.864;25.986;2024-02-16T21:41:56;30.98;;;17.55;;
58244;SDS011;44550;43.864;25.986;2024-02-16T21:46:01;29.23;;;17.75;;
58244;SDS011;44550;43.864;25.986;2024-02-16T21:50:10;30.45;;;19.08;;
58244;SDS011;44550;43.864;25.986;2024-02-16T21:54:15;31.35;;;17.38;;
58244;SDS011;44550;43.864;25.986;2024-02-16T21:58:18;30.40;;;17.67;;
58244;SDS011;44550;43.864;25.986;2024-02-16T22:02:25;29.73;;;17.83;;
58244;SDS011;44550;43.864;25.986;2024-02-16T22:06:32;32.78;;;15.50;;
58244;SDS011;44550;43.864;25.986;2024-02-16T22:15:18;31.60;;;14.60;;
58244;SDS011;44550;43.864;25.986;2024-02-16T22:19:43;31.75;;;17.73;;
58244;SDS011;44550;43.864;25.986;2024-02-16T22:23:55;32.47;;;19.75;;
58244;SDS011;44550;43.864;25.986;2024-02-16T22:28:03;29.42;;;17.73;;
58244;SDS011;44550;43.864;25.986;2024-02-16T22:32:15;27.45;;;16.90;;
58244;SDS011;44550;43.864;25.986;2024-02-16T22:36:34;29.70;;;18.17;;
58244;SDS011;44550;43.864;25.986;2024-02-16T22:40:55;29.70;;;18.05;;
58244;SDS011;44550;43.864;25.986;2024-02-16T22:45:05;32.53;;;18.23;;
58244;SDS011;44550;43.864;25.986;2024-02-16T22:49:08;30.65;;;16.98;;
58244;SDS011;44550;43.864;25.986;2024-02-16T22:53:10;33.05;;;16.65;;
58244;SDS011;44550;43.864;25.986;2024-02-16T22:57:16;31.25;;;16.77;;
58244;SDS011;44550;43.864;25.986;2024-02-16T23:01:33;28.45;;;16.83;;
58244;SDS011;44550;43.864;25.986;2024-02-16T23:05:35;26.40;;;16.15;;
58244;SDS011;44550;43.864;25.986;2024-02-16T23:09:37;26.73;;;16.52;;
58244;SDS011;44550;43.864;25.986;2024-02-16T23:13:50;28.90;;;17.10;;
58244;SDS011;44550;43.864;25.986;2024-02-16T23:22:09;35.10;;;17.27;;
58244;SDS011;44550;43.864;25.986;2024-02-16T23:26:12;32.90;;;18.55;;
58244;SDS011;44550;43.864;25.986;2024-02-16T23:30:24;30.15;;;18.63;;
58244;SDS011;44550;43.864;25.986;2024-02-16T23:34:33;35.72;;;19.25;;
58244;SDS011;44550;43.864;25.986;2024-02-16T23:38:37;31.90;;;17.58;;
58244;SDS011;44550;43.864;25.986;2024-02-16T23:42:38;31.35;;;18.90;;
58244;SDS011;44550;43.864;25.986;2024-02-16T23:46:46;31.58;;;17.85;;
58244;SDS011;44550;43.864;25.986;2024-02-16T23:50:49;31.02;;;19.40;;